Columbus, Montana
Current Conditions -  °F | °C
As of 1:53 PM on Sunday 23 Nov 2014 (Local Time) from KBIL Reporting Station
Few Clouds Few Clouds  
Wind Chill: 33°   Ceiling: Unl
Heat Index: 43°   Visibility: 10mi
Dew Point: 14°   Wind: 25mph
Humidity: 31%   Direction: 300°WNW
Pressure: 29.87"   Gusts: 37mph
Location:  45.64°N, 109.25°W
Report Text: KBIL 232053Z 30022G32KT 10SM FEW070 06/M10 A2987 RMK AO2 PK WND 30034/2042 SLP129 T00611100 58012 $
Loading
Personal Weather Stations






























Interactive Weather Map New forecast layout! Learn more

10-Day Weather Forecast

Advertisements
Track Severe Weather on mobile